sensor_id;sensor_type;location;lat;lon;timestamp;P1;durP1;ratioP1;P2;durP2;ratioP2
34098;SDS011;20374;49.474;10.944;2024-03-08T00:00:10;4.20;;;3.90;;
34098;SDS011;20374;49.474;10.944;2024-03-08T00:02:41;5.53;;;4.60;;
34098;SDS011;20374;49.474;10.944;2024-03-08T00:05:08;7.85;;;5.22;;
34098;SDS011;20374;49.474;10.944;2024-03-08T00:07:35;4.72;;;4.35;;
34098;SDS011;20374;49.474;10.944;2024-03-08T00:10:02;3.80;;;3.43;;
34098;SDS011;20374;49.474;10.944;2024-03-08T00:12:28;4.85;;;4.43;;
34098;SDS011;20374;49.474;10.944;2024-03-08T00:14:54;6.07;;;4.28;;
34098;SDS011;20374;49.474;10.944;2024-03-08T00:17:20;5.57;;;3.70;;
34098;SDS011;20374;49.474;10.944;2024-03-08T00:19:50;4.45;;;4.05;;
34098;SDS011;20374;49.474;10.944;2024-03-08T00:22:16;4.10;;;3.70;;
34098;SDS011;20374;49.474;10.944;2024-03-08T00:24:43;3.40;;;3.10;;
34098;SDS011;20374;49.474;10.944;2024-03-08T00:27:09;5.75;;;4.60;;
34098;SDS011;20374;49.474;10.944;2024-03-08T00:29:36;4.20;;;3.70;;
34098;SDS011;20374;49.474;10.944;2024-03-08T00:32:04;3.65;;;2.90;;
34098;SDS011;20374;49.474;10.944;2024-03-08T00:34:30;3.72;;;3.42;;
34098;SDS011;20374;49.474;10.944;2024-03-08T00:36:57;4.43;;;2.97;;
34098;SDS011;20374;49.474;10.944;2024-03-08T00:39:23;4.68;;;4.28;;
34098;SDS011;20374;49.474;10.944;2024-03-08T00:41:50;6.23;;;3.30;;
34098;SDS011;20374;49.474;10.944;2024-03-08T00:44:16;3.92;;;3.67;;
34098;SDS011;20374;49.474;10.944;2024-03-08T00:46:42;6.47;;;3.85;;
34098;SDS011;20374;49.474;10.944;2024-03-08T00:49:08;4.53;;;3.77;;
34098;SDS011;20374;49.474;10.944;2024-03-08T00:51:34;3.92;;;3.58;;
34098;SDS011;20374;49.474;10.944;2024-03-08T00:54:01;3.83;;;3.08;;
34098;SDS011;20374;49.474;10.944;2024-03-08T00:56:27;3.75;;;3.45;;
34098;SDS011;20374;49.474;10.944;2024-03-08T00:58:53;4.10;;;3.70;;
34098;SDS011;20374;49.474;10.944;2024-03-08T01:01:19;4.88;;;4.00;;
34098;SDS011;20374;49.474;10.944;2024-03-08T01:03:45;5.43;;;3.92;;
34098;SDS011;20374;49.474;10.944;2024-03-08T01:06:11;4.25;;;3.92;;
34098;SDS011;20374;49.474;10.944;2024-03-08T01:08:37;7.60;;;3.80;;
34098;SDS011;20374;49.474;10.944;2024-03-08T01:11:04;7.32;;;4.90;;
34098;SDS011;20374;49.474;10.944;2024-03-08T01:13:30;4.55;;;4.20;;
34098;SDS011;20374;49.474;10.944;2024-03-08T01:15:56;4.72;;;3.78;;
34098;SDS011;20374;49.474;10.944;2024-03-08T01:18:22;3.27;;;3.07;;
34098;SDS011;20374;49.474;10.944;2024-03-08T01:20:48;6.72;;;3.60;;
34098;SDS011;20374;49.474;10.944;2024-03-08T01:23:14;4.53;;;4.05;;
34098;SDS011;20374;49.474;10.944;2024-03-08T01:25:39;4.50;;;4.00;;
34098;SDS011;20374;49.474;10.944;2024-03-08T01:28:06;6.53;;;4.05;;
34098;SDS011;20374;49.474;10.944;2024-03-08T01:30:32;5.53;;;4.28;;
34098;SDS011;20374;49.474;10.944;2024-03-08T01:33:00;3.90;;;3.22;;
34098;SDS011;20374;49.474;10.944;2024-03-08T01:35:26;6.33;;;2.37;;
34098;SDS011;20374;49.474;10.944;2024-03-08T01:37:52;5.03;;;4.63;;
34098;SDS011;20374;49.474;10.944;2024-03-08T01:40:18;4.28;;;3.97;;
34098;SDS011;20374;49.474;10.944;2024-03-08T01:42:44;5.07;;;4.53;;
34098;SDS011;20374;49.474;10.944;2024-03-08T01:45:10;4.23;;;3.93;;
34098;SDS011;20374;49.474;10.944;2024-03-08T01:47:36;3.10;;;2.90;;
34098;SDS011;20374;49.474;10.944;2024-03-08T01:50:02;5.78;;;5.25;;
34098;SDS011;20374;49.474;10.944;2024-03-08T01:52:31;4.22;;;3.38;;
34098;SDS011;20374;49.474;10.944;2024-03-08T01:55:02;4.17;;;3.83;;
34098;SDS011;20374;49.474;10.944;2024-03-08T01:57:32;4.22;;;3.83;;
34098;SDS011;20374;49.474;10.944;2024-03-08T02:00:03;3.75;;;3.45;;
34098;SDS011;20374;49.474;10.944;2024-03-08T02:02:31;4.18;;;3.85;;
34098;SDS011;20374;49.474;10.944;2024-03-08T02:04:58;4.57;;;3.95;;
34098;SDS011;20374;49.474;10.944;2024-03-08T02:07:25;6.63;;;5.17;;
34098;SDS011;20374;49.474;10.944;2024-03-08T02:09:51;4.90;;;3.55;;
34098;SDS011;20374;49.474;10.944;2024-03-08T02:12:17;7.15;;;4.10;;
34098;SDS011;20374;49.474;10.944;2024-03-08T02:14:46;6.30;;;4.45;;
34098;SDS011;20374;49.474;10.944;2024-03-08T02:17:12;4.55;;;4.05;;
34098;SDS011;20374;49.474;10.944;2024-03-08T02:19:38;5.50;;;3.73;;
34098;SDS011;20374;49.474;10.944;2024-03-08T02:22:05;3.50;;;3.03;;
34098;SDS011;20374;49.474;10.944;2024-03-08T02:24:31;4.00;;;3.70;;
34098;SDS011;20374;49.474;10.944;2024-03-08T02:26:58;4.78;;;4.38;;
34098;SDS011;20374;49.474;10.944;2024-03-08T02:29:24;4.72;;;4.32;;
34098;SDS011;20374;49.474;10.944;2024-03-08T02:31:50;4.70;;;4.30;;
34098;SDS011;20374;49.474;10.944;2024-03-08T02:34:17;3.50;;;3.20;;
34098;SDS011;20374;49.474;10.944;2024-03-08T02:36:42;4.03;;;3.63;;
34098;SDS011;20374;49.474;10.944;2024-03-08T02:39:08;3.87;;;3.57;;
34098;SDS011;20374;49.474;10.944;2024-03-08T02:41:35;6.25;;;4.38;;
34098;SDS011;20374;49.474;10.944;2024-03-08T02:44:02;3.55;;;3.25;;
34098;SDS011;20374;49.474;10.944;2024-03-08T02:46:29;3.45;;;3.15;;
34098;SDS011;20374;49.474;10.944;2024-03-08T02:48:55;8.63;;;3.90;;
34098;SDS011;20374;49.474;10.944;2024-03-08T02:51:21;3.85;;;3.55;;
34098;SDS011;20374;49.474;10.944;2024-03-08T02:53:47;7.35;;;3.83;;
34098;SDS011;20374;49.474;10.944;2024-03-08T02:56:17;2.70;;;2.17;;
34098;SDS011;20374;49.474;10.944;2024-03-08T02:58:43;4.37;;;3.97;;
34098;SDS011;20374;49.474;10.944;2024-03-08T03:01:14;4.68;;;4.35;;
34098;SDS011;20374;49.474;10.944;2024-03-08T03:03:41;3.42;;;3.00;;
34098;SDS011;20374;49.474;10.944;2024-03-08T03:06:07;3.30;;;2.95;;
34098;SDS011;20374;49.474;10.944;2024-03-08T03:08:33;4.57;;;4.17;;
34098;SDS011;20374;49.474;10.944;2024-03-08T03:10:59;2.92;;;2.72;;
34098;SDS011;20374;49.474;10.944;2024-03-08T03:13:25;3.40;;;3.20;;
34098;SDS011;20374;49.474;10.944;2024-03-08T03:15:51;4.97;;;4.57;;
34098;SDS011;20374;49.474;10.944;2024-03-08T03:18:17;4.63;;;4.18;;
34098;SDS011;20374;49.474;10.944;2024-03-08T03:20:46;4.05;;;3.65;;
34098;SDS011;20374;49.474;10.944;2024-03-08T03:23:12;3.85;;;2.80;;
34098;SDS011;20374;49.474;10.944;2024-03-08T03:25:39;4.83;;;3.87;;
34098;SDS011;20374;49.474;10.944;2024-03-08T03:28:06;6.70;;;3.00;;
34098;SDS011;20374;49.474;10.944;2024-03-08T03:30:33;3.13;;;2.88;;
34098;SDS011;20374;49.474;10.944;2024-03-08T03:32:59;3.65;;;3.35;;
34098;SDS011;20374;49.474;10.944;2024-03-08T03:35:26;3.25;;;2.95;;
34098;SDS011;20374;49.474;10.944;2024-03-08T03:37:53;3.30;;;3.00;;
34098;SDS011;20374;49.474;10.944;2024-03-08T03:40:31;6.35;;;3.60;;
34098;SDS011;20374;49.474;10.944;2024-03-08T03:42:57;3.83;;;3.53;;
34098;SDS011;20374;49.474;10.944;2024-03-08T03:45:24;3.53;;;3.10;;
34098;SDS011;20374;49.474;10.944;2024-03-08T03:47:50;2.78;;;2.53;;
34098;SDS011;20374;49.474;10.944;2024-03-08T03:50:20;3.03;;;2.80;;
34098;SDS011;20374;49.474;10.944;2024-03-08T03:52:47;3.70;;;3.40;;
34098;SDS011;20374;49.474;10.944;2024-03-08T03:55:13;4.13;;;3.83;;
34098;SDS011;20374;49.474;10.944;2024-03-08T03:57:40;7.00;;;3.38;;
34098;SDS011;20374;49.474;10.944;2024-03-08T04:00:06;3.22;;;3.00;;
34098;SDS011;20374;49.474;10.944;2024-03-08T04:02:39;3.47;;;2.93;;
34098;SDS011;20374;49.474;10.944;2024-03-08T04:05:06;9.35;;;3.15;;
34098;SDS011;20374;49.474;10.944;2024-03-08T04:07:33;4.07;;;3.67;;
34098;SDS011;20374;49.474;10.944;2024-03-08T04:10:03;4.20;;;2.85;;
34098;SDS011;20374;49.474;10.944;2024-03-08T04:12:31;4.97;;;3.60;;
34098;SDS011;20374;49.474;10.944;2024-03-08T04:14:58;6.17;;;3.73;;
34098;SDS011;20374;49.474;10.944;2024-03-08T04:17:23;3.25;;;2.83;;
34098;SDS011;20374;49.474;10.944;2024-03-08T04:19:49;5.13;;;4.68;;
34098;SDS011;20374;49.474;10.944;2024-03-08T04:22:16;2.63;;;2.43;;
34098;SDS011;20374;49.474;10.944;2024-03-08T04:24:43;3.38;;;2.75;;
34098;SDS011;20374;49.474;10.944;2024-03-08T04:27:09;3.75;;;3.45;;
34098;SDS011;20374;49.474;10.944;2024-03-08T04:29:35;3.63;;;3.33;;
34098;SDS011;20374;49.474;10.944;2024-03-08T04:32:05;4.20;;;3.47;;
34098;SDS011;20374;49.474;10.944;2024-03-08T04:34:32;2.75;;;2.55;;
34098;SDS011;20374;49.474;10.944;2024-03-08T04:36:59;11.68;;;3.20;;
34098;SDS011;20374;49.474;10.944;2024-03-08T04:39:26;4.22;;;3.60;;
34098;SDS011;20374;49.474;10.944;2024-03-08T04:41:59;2.95;;;2.42;;
34098;SDS011;20374;49.474;10.944;2024-03-08T04:44:35;4.77;;;4.13;;
34098;SDS011;20374;49.474;10.944;2024-03-08T04:47:05;6.68;;;3.03;;
34098;SDS011;20374;49.474;10.944;2024-03-08T04:49:32;4.07;;;2.90;;
34098;SDS011;20374;49.474;10.944;2024-03-08T04:52:02;4.25;;;3.80;;
34098;SDS011;20374;49.474;10.944;2024-03-08T04:54:29;7.43;;;3.83;;
34098;SDS011;20374;49.474;10.944;2024-03-08T04:56:55;5.53;;;4.77;;
34098;SDS011;20374;49.474;10.944;2024-03-08T04:59:21;3.40;;;3.10;;
34098;SDS011;20374;49.474;10.944;2024-03-08T05:01:47;4.88;;;4.03;;
34098;SDS011;20374;49.474;10.944;2024-03-08T05:04:13;4.22;;;3.88;;
34098;SDS011;20374;49.474;10.944;2024-03-08T05:06:40;3.53;;;2.90;;
34098;SDS011;20374;49.474;10.944;2024-03-08T05:09:06;4.30;;;3.97;;
34098;SDS011;20374;49.474;10.944;2024-03-08T05:11:44;5.40;;;5.00;;
34098;SDS011;20374;49.474;10.944;2024-03-08T05:14:12;3.22;;;3.03;;
34098;SDS011;20374;49.474;10.944;2024-03-08T05:16:45;4.32;;;3.63;;
34098;SDS011;20374;49.474;10.944;2024-03-08T05:19:18;3.60;;;3.33;;
34098;SDS011;20374;49.474;10.944;2024-03-08T05:21:45;4.32;;;4.03;;
34098;SDS011;20374;49.474;10.944;2024-03-08T05:24:15;4.70;;;4.03;;
34098;SDS011;20374;49.474;10.944;2024-03-08T05:26:41;4.22;;;3.90;;
34098;SDS011;20374;49.474;10.944;2024-03-08T05:29:08;3.13;;;2.92;;
34098;SDS011;20374;49.474;10.944;2024-03-08T05:31:55;5.37;;;4.97;;
34098;SDS011;20374;49.474;10.944;2024-03-08T05:34:21;3.97;;;3.60;;
34098;SDS011;20374;49.474;10.944;2024-03-08T05:36:47;5.97;;;5.53;;
34098;SDS011;20374;49.474;10.944;2024-03-08T05:39:16;4.20;;;3.80;;
34098;SDS011;20374;49.474;10.944;2024-03-08T05:41:43;5.40;;;4.10;;
34098;SDS011;20374;49.474;10.944;2024-03-08T05:44:10;4.67;;;4.37;;
34098;SDS011;20374;49.474;10.944;2024-03-08T05:46:36;4.78;;;4.32;;
34098;SDS011;20374;49.474;10.944;2024-03-08T05:49:06;4.15;;;3.85;;
34098;SDS011;20374;49.474;10.944;2024-03-08T05:51:32;3.85;;;3.50;;
34098;SDS011;20374;49.474;10.944;2024-03-08T05:54:05;4.63;;;4.18;;
34098;SDS011;20374;49.474;10.944;2024-03-08T05:56:35;3.93;;;3.63;;
34098;SDS011;20374;49.474;10.944;2024-03-08T05:59:02;4.35;;;3.92;;
34098;SDS011;20374;49.474;10.944;2024-03-08T06:01:28;5.70;;;5.20;;
34098;SDS011;20374;49.474;10.944;2024-03-08T06:03:54;5.22;;;3.83;;
34098;SDS011;20374;49.474;10.944;2024-03-08T06:06:22;5.73;;;5.23;;
34098;SDS011;20374;49.474;10.944;2024-03-08T06:08:49;5.70;;;3.97;;
34098;SDS011;20374;49.474;10.944;2024-03-08T06:11:16;3.40;;;3.17;;
34098;SDS011;20374;49.474;10.944;2024-03-08T06:13:43;5.35;;;4.95;;
34098;SDS011;20374;49.474;10.944;2024-03-08T06:16:10;3.47;;;3.00;;
34098;SDS011;20374;49.474;10.944;2024-03-08T06:18:36;4.60;;;4.30;;
34098;SDS011;20374;49.474;10.944;2024-03-08T06:21:04;5.15;;;3.58;;
34098;SDS011;20374;49.474;10.944;2024-03-08T06:23:34;4.78;;;4.45;;
34098;SDS011;20374;49.474;10.944;2024-03-08T06:26:06;7.43;;;4.68;;
34098;SDS011;20374;49.474;10.944;2024-03-08T06:28:33;5.47;;;4.88;;
34098;SDS011;20374;49.474;10.944;2024-03-08T06:31:00;4.47;;;3.73;;
34098;SDS011;20374;49.474;10.944;2024-03-08T06:33:27;3.85;;;3.55;;
34098;SDS011;20374;49.474;10.944;2024-03-08T06:35:53;6.68;;;5.78;;
34098;SDS011;20374;49.474;10.944;2024-03-08T06:38:22;8.02;;;5.05;;
34098;SDS011;20374;49.474;10.944;2024-03-08T06:40:49;6.43;;;4.93;;
34098;SDS011;20374;49.474;10.944;2024-03-08T06:43:16;5.67;;;5.17;;
34098;SDS011;20374;49.474;10.944;2024-03-08T06:45:44;5.38;;;4.97;;
34098;SDS011;20374;49.474;10.944;2024-03-08T06:48:17;8.43;;;5.30;;
34098;SDS011;20374;49.474;10.944;2024-03-08T06:50:44;5.22;;;4.63;;
34098;SDS011;20374;49.474;10.944;2024-03-08T06:53:11;6.82;;;6.22;;
34098;SDS011;20374;49.474;10.944;2024-03-08T06:55:37;7.23;;;6.53;;
34098;SDS011;20374;49.474;10.944;2024-03-08T06:58:03;7.05;;;5.65;;
34098;SDS011;20374;49.474;10.944;2024-03-08T07:00:29;9.45;;;6.25;;
34098;SDS011;20374;49.474;10.944;2024-03-08T07:02:58;9.40;;;5.75;;
34098;SDS011;20374;49.474;10.944;2024-03-08T07:05:28;6.60;;;6.05;;
34098;SDS011;20374;49.474;10.944;2024-03-08T07:07:54;5.37;;;4.53;;
34098;SDS011;20374;49.474;10.944;2024-03-08T07:10:20;5.85;;;5.13;;
34098;SDS011;20374;49.474;10.944;2024-03-08T07:12:52;7.72;;;6.07;;
34098;SDS011;20374;49.474;10.944;2024-03-08T07:15:18;6.70;;;5.30;;
34098;SDS011;20374;49.474;10.944;2024-03-08T07:17:45;6.33;;;5.83;;
34098;SDS011;20374;49.474;10.944;2024-03-08T07:20:12;4.85;;;3.67;;
34098;SDS011;20374;49.474;10.944;2024-03-08T07:22:40;6.05;;;5.15;;
34098;SDS011;20374;49.474;10.944;2024-03-08T07:25:06;9.70;;;7.07;;
34098;SDS011;20374;49.474;10.944;2024-03-08T07:27:33;8.05;;;5.70;;
34098;SDS011;20374;49.474;10.944;2024-03-08T07:30:04;5.70;;;5.20;;
34098;SDS011;20374;49.474;10.944;2024-03-08T07:32:30;6.47;;;5.25;;
34098;SDS011;20374;49.474;10.944;2024-03-08T07:34:57;6.53;;;5.18;;
34098;SDS011;20374;49.474;10.944;2024-03-08T07:37:23;6.43;;;5.93;;
34098;SDS011;20374;49.474;10.944;2024-03-08T07:39:49;6.38;;;5.78;;
34098;SDS011;20374;49.474;10.944;2024-03-08T07:42:15;8.13;;;6.90;;
34098;SDS011;20374;49.474;10.944;2024-03-08T07:44:42;6.50;;;5.88;;
34098;SDS011;20374;49.474;10.944;2024-03-08T07:47:08;9.32;;;6.93;;
34098;SDS011;20374;49.474;10.944;2024-03-08T07:49:37;6.32;;;4.95;;
34098;SDS011;20374;49.474;10.944;2024-03-08T07:52:03;8.23;;;5.63;;
34098;SDS011;20374;49.474;10.944;2024-03-08T07:54:31;6.85;;;6.25;;
34098;SDS011;20374;49.474;10.944;2024-03-08T07:56:56;7.13;;;5.25;;
34098;SDS011;20374;49.474;10.944;2024-03-08T07:59:22;6.35;;;5.72;;
34098;SDS011;20374;49.474;10.944;2024-03-08T08:01:48;6.97;;;5.70;;
34098;SDS011;20374;49.474;10.944;2024-03-08T08:04:14;7.93;;;5.80;;
34098;SDS011;20374;49.474;10.944;2024-03-08T08:06:43;9.07;;;7.20;;
34098;SDS011;20374;49.474;10.944;2024-03-08T08:09:09;6.20;;;5.70;;
34098;SDS011;20374;49.474;10.944;2024-03-08T08:11:40;11.68;;;7.13;;
34098;SDS011;20374;49.474;10.944;2024-03-08T08:14:09;8.98;;;6.93;;
34098;SDS011;20374;49.474;10.944;2024-03-08T08:16:35;14.57;;;7.70;;
34098;SDS011;20374;49.474;10.944;2024-03-08T08:19:07;7.97;;;7.27;;
34098;SDS011;20374;49.474;10.944;2024-03-08T08:21:36;7.35;;;6.40;;
34098;SDS011;20374;49.474;10.944;2024-03-08T08:24:03;8.50;;;6.55;;
34098;SDS011;20374;49.474;10.944;2024-03-08T08:26:29;8.02;;;7.28;;
34098;SDS011;20374;49.474;10.944;2024-03-08T08:28:55;7.25;;;6.07;;
34098;SDS011;20374;49.474;10.944;2024-03-08T08:31:21;7.00;;;6.40;;
34098;SDS011;20374;49.474;10.944;2024-03-08T08:33:47;9.25;;;8.10;;
34098;SDS011;20374;49.474;10.944;2024-03-08T08:36:14;8.48;;;7.60;;
34098;SDS011;20374;49.474;10.944;2024-03-08T08:38:40;10.02;;;7.70;;
34098;SDS011;20374;49.474;10.944;2024-03-08T08:41:09;9.67;;;7.83;;
34098;SDS011;20374;49.474;10.944;2024-03-08T08:43:36;7.63;;;6.85;;
34098;SDS011;20374;49.474;10.944;2024-03-08T08:46:02;8.63;;;7.82;;
34098;SDS011;20374;49.474;10.944;2024-03-08T08:48:29;7.03;;;6.43;;
34098;SDS011;20374;49.474;10.944;2024-03-08T08:50:56;7.65;;;6.95;;
34098;SDS011;20374;49.474;10.944;2024-03-08T08:53:22;7.27;;;6.57;;
34098;SDS011;20374;49.474;10.944;2024-03-08T08:55:48;7.32;;;6.63;;
34098;SDS011;20374;49.474;10.944;2024-03-08T08:58:14;8.23;;;6.72;;
34098;SDS011;20374;49.474;10.944;2024-03-08T09:00:40;6.90;;;6.10;;
34098;SDS011;20374;49.474;10.944;2024-03-08T09:03:05;6.38;;;5.63;;
34098;SDS011;20374;49.474;10.944;2024-03-08T09:05:36;7.72;;;6.20;;
34098;SDS011;20374;49.474;10.944;2024-03-08T09:08:02;5.68;;;5.18;;
34098;SDS011;20374;49.474;10.944;2024-03-08T09:10:28;6.88;;;6.28;;
34098;SDS011;20374;49.474;10.944;2024-03-08T09:12:54;7.27;;;6.40;;
34098;SDS011;20374;49.474;10.944;2024-03-08T09:15:20;5.50;;;4.95;;
34098;SDS011;20374;49.474;10.944;2024-03-08T09:17:46;6.97;;;6.25;;
34098;SDS011;20374;49.474;10.944;2024-03-08T09:20:13;4.80;;;4.37;;
34098;SDS011;20374;49.474;10.944;2024-03-08T09:22:48;6.40;;;4.72;;
34098;SDS011;20374;49.474;10.944;2024-03-08T09:25:14;6.25;;;5.65;;
34098;SDS011;20374;49.474;10.944;2024-03-08T09:27:40;6.43;;;5.53;;
34098;SDS011;20374;49.474;10.944;2024-03-08T09:30:06;4.60;;;4.20;;
34098;SDS011;20374;49.474;10.944;2024-03-08T09:32:32;4.72;;;4.10;;
34098;SDS011;20374;49.474;10.944;2024-03-08T09:34:58;4.93;;;4.57;;
34098;SDS011;20374;49.474;10.944;2024-03-08T09:37:26;4.60;;;4.20;;
34098;SDS011;20374;49.474;10.944;2024-03-08T09:39:52;6.20;;;5.10;;
34098;SDS011;20374;49.474;10.944;2024-03-08T09:42:18;5.03;;;4.63;;
34098;SDS011;20374;49.474;10.944;2024-03-08T09:44:45;5.25;;;4.68;;
34098;SDS011;20374;49.474;10.944;2024-03-08T09:47:13;7.57;;;5.63;;
34098;SDS011;20374;49.474;10.944;2024-03-08T09:49:39;4.05;;;3.75;;
34098;SDS011;20374;49.474;10.944;2024-03-08T09:52:07;5.65;;;5.15;;
34098;SDS011;20374;49.474;10.944;2024-03-08T09:54:33;8.52;;;4.93;;
34098;SDS011;20374;49.474;10.944;2024-03-08T09:57:00;5.03;;;4.18;;
34098;SDS011;20374;49.474;10.944;2024-03-08T09:59:29;5.17;;;4.47;;
34098;SDS011;20374;49.474;10.944;2024-03-08T10:02:12;5.88;;;5.38;;
34098;SDS011;20374;49.474;10.944;2024-03-08T10:04:40;4.30;;;3.90;;
34098;SDS011;20374;49.474;10.944;2024-03-08T10:07:11;6.38;;;5.43;;
34098;SDS011;20374;49.474;10.944;2024-03-08T10:09:37;5.25;;;4.82;;
34098;SDS011;20374;49.474;10.944;2024-03-08T10:12:04;4.13;;;3.83;;
34098;SDS011;20374;49.474;10.944;2024-03-08T10:14:30;5.45;;;4.63;;
34098;SDS011;20374;49.474;10.944;2024-03-08T10:16:59;4.95;;;4.35;;
34098;SDS011;20374;49.474;10.944;2024-03-08T10:19:26;4.85;;;4.35;;
34098;SDS011;20374;49.474;10.944;2024-03-08T10:21:55;5.53;;;5.03;;
34098;SDS011;20374;49.474;10.944;2024-03-08T10:24:24;9.57;;;5.63;;
34098;SDS011;20374;49.474;10.944;2024-03-08T10:26:51;6.40;;;5.60;;
34098;SDS011;20374;49.474;10.944;2024-03-08T10:29:24;4.93;;;4.63;;
34098;SDS011;20374;49.474;10.944;2024-03-08T10:31:50;4.50;;;4.20;;
34098;SDS011;20374;49.474;10.944;2024-03-08T10:34:16;4.55;;;4.15;;
34098;SDS011;20374;49.474;10.944;2024-03-08T10:36:42;6.60;;;6.10;;
34098;SDS011;20374;49.474;10.944;2024-03-08T10:39:20;5.57;;;5.07;;
34098;SDS011;20374;49.474;10.944;2024-03-08T10:41:52;5.50;;;5.00;;
34098;SDS011;20374;49.474;10.944;2024-03-08T10:44:32;4.15;;;3.85;;
34098;SDS011;20374;49.474;10.944;2024-03-08T10:47:18;5.93;;;5.53;;
34098;SDS011;20374;49.474;10.944;2024-03-08T10:50:03;6.15;;;4.72;;
34098;SDS011;20374;49.474;10.944;2024-03-08T10:52:31;5.70;;;4.80;;
34098;SDS011;20374;49.474;10.944;2024-03-08T10:54:59;5.97;;;5.47;;
34098;SDS011;20374;49.474;10.944;2024-03-08T10:57:30;5.57;;;4.88;;
34098;SDS011;20374;49.474;10.944;2024-03-08T11:00:01;5.97;;;5.17;;
34098;SDS011;20374;49.474;10.944;2024-03-08T11:02:29;5.40;;;4.88;;
34098;SDS011;20374;49.474;10.944;2024-03-08T11:04:56;5.35;;;4.95;;
34098;SDS011;20374;49.474;10.944;2024-03-08T11:07:22;6.75;;;6.10;;
34098;SDS011;20374;49.474;10.944;2024-03-08T11:09:48;6.67;;;5.30;;
34098;SDS011;20374;49.474;10.944;2024-03-08T11:15:00;4.85;;;4.55;;
34098;SDS011;20374;49.474;10.944;2024-03-08T11:20:04;5.40;;;4.50;;
34098;SDS011;20374;49.474;10.944;2024-03-08T11:22:41;4.70;;;4.30;;
34098;SDS011;20374;49.474;10.944;2024-03-08T11:25:30;5.18;;;4.70;;
34098;SDS011;20374;49.474;10.944;2024-03-08T11:31:22;5.47;;;5.07;;
34098;SDS011;20374;49.474;10.944;2024-03-08T11:33:36;5.40;;;4.82;;
34098;SDS011;20374;49.474;10.944;2024-03-08T11:36:12;4.97;;;4.57;;
34098;SDS011;20374;49.474;10.944;2024-03-08T11:38:47;4.13;;;3.83;;
34098;SDS011;20374;49.474;10.944;2024-03-08T11:41:17;5.03;;;4.65;;
34098;SDS011;20374;49.474;10.944;2024-03-08T11:46:55;5.45;;;4.70;;
34098;SDS011;20374;49.474;10.944;2024-03-08T11:49:21;4.60;;;4.20;;
34098;SDS011;20374;49.474;10.944;2024-03-08T11:51:52;5.05;;;4.60;;
34098;SDS011;20374;49.474;10.944;2024-03-08T11:54:21;5.10;;;4.70;;
34098;SDS011;20374;49.474;10.944;2024-03-08T11:56:48;4.25;;;3.85;;
34098;SDS011;20374;49.474;10.944;2024-03-08T11:59:17;5.13;;;4.73;;
34098;SDS011;20374;49.474;10.944;2024-03-08T12:01:43;4.22;;;3.92;;
34098;SDS011;20374;49.474;10.944;2024-03-08T12:04:21;5.00;;;4.60;;
34098;SDS011;20374;49.474;10.944;2024-03-08T12:06:49;4.50;;;4.20;;
34098;SDS011;20374;49.474;10.944;2024-03-08T12:09:15;4.95;;;4.55;;
34098;SDS011;20374;49.474;10.944;2024-03-08T12:11:41;5.40;;;4.95;;
34098;SDS011;20374;49.474;10.944;2024-03-08T12:14:08;4.68;;;4.18;;
34098;SDS011;20374;49.474;10.944;2024-03-08T12:16:36;4.90;;;4.60;;
34098;SDS011;20374;49.474;10.944;2024-03-08T12:19:02;4.65;;;4.25;;
34098;SDS011;20374;49.474;10.944;2024-03-08T12:21:31;4.97;;;4.47;;
34098;SDS011;20374;49.474;10.944;2024-03-08T12:24:07;5.10;;;4.60;;
34098;SDS011;20374;49.474;10.944;2024-03-08T12:26:37;5.28;;;4.85;;
34098;SDS011;20374;49.474;10.944;2024-03-08T12:29:16;5.22;;;4.68;;
34098;SDS011;20374;49.474;10.944;2024-03-08T12:31:45;3.63;;;3.40;;
34098;SDS011;20374;49.474;10.944;2024-03-08T12:34:11;6.20;;;5.70;;
34098;SDS011;20374;49.474;10.944;2024-03-08T12:36:48;4.80;;;4.35;;
34098;SDS011;20374;49.474;10.944;2024-03-08T12:39:18;4.55;;;4.15;;
34098;SDS011;20374;49.474;10.944;2024-03-08T12:41:52;5.90;;;5.30;;
34098;SDS011;20374;49.474;10.944;2024-03-08T12:44:18;5.25;;;4.85;;
34098;SDS011;20374;49.474;10.944;2024-03-08T12:46:47;5.70;;;5.30;;
34098;SDS011;20374;49.474;10.944;2024-03-08T12:49:13;5.88;;;5.38;;
34098;SDS011;20374;49.474;10.944;2024-03-08T12:51:43;5.25;;;4.85;;
34098;SDS011;20374;49.474;10.944;2024-03-08T12:54:10;6.07;;;5.57;;
34098;SDS011;20374;49.474;10.944;2024-03-08T12:56:36;5.78;;;5.25;;
34098;SDS011;20374;49.474;10.944;2024-03-08T12:59:05;6.20;;;5.70;;
34098;SDS011;20374;49.474;10.944;2024-03-08T13:01:35;5.18;;;4.78;;
34098;SDS011;20374;49.474;10.944;2024-03-08T13:04:05;5.30;;;4.90;;
34098;SDS011;20374;49.474;10.944;2024-03-08T13:06:32;5.55;;;5.05;;
34098;SDS011;20374;49.474;10.944;2024-03-08T13:08:58;5.30;;;4.85;;
34098;SDS011;20374;49.474;10.944;2024-03-08T13:11:26;6.13;;;5.73;;
34098;SDS011;20374;49.474;10.944;2024-03-08T13:13:52;6.18;;;5.65;;
34098;SDS011;20374;49.474;10.944;2024-03-08T13:16:18;6.32;;;5.40;;
34098;SDS011;20374;49.474;10.944;2024-03-08T13:18:47;6.35;;;5.85;;
34098;SDS011;20374;49.474;10.944;2024-03-08T13:21:14;5.00;;;4.60;;
34098;SDS011;20374;49.474;10.944;2024-03-08T13:23:43;6.00;;;5.37;;
34098;SDS011;20374;49.474;10.944;2024-03-08T13:26:14;6.03;;;5.53;;
34098;SDS011;20374;49.474;10.944;2024-03-08T13:28:42;6.35;;;5.75;;
34098;SDS011;20374;49.474;10.944;2024-03-08T13:31:09;6.00;;;5.50;;
34098;SDS011;20374;49.474;10.944;2024-03-08T13:33:39;6.80;;;6.20;;
34098;SDS011;20374;49.474;10.944;2024-03-08T13:36:07;5.87;;;5.37;;
34098;SDS011;20374;49.474;10.944;2024-03-08T13:38:43;6.45;;;5.93;;
34098;SDS011;20374;49.474;10.944;2024-03-08T13:41:13;6.72;;;6.15;;
34098;SDS011;20374;49.474;10.944;2024-03-08T13:43:41;7.07;;;6.40;;
34098;SDS011;20374;49.474;10.944;2024-03-08T13:46:17;6.47;;;5.88;;
34098;SDS011;20374;49.474;10.944;2024-03-08T13:48:43;6.40;;;5.90;;
34098;SDS011;20374;49.474;10.944;2024-03-08T13:51:09;6.28;;;5.78;;
34098;SDS011;20374;49.474;10.944;2024-03-08T13:53:37;6.70;;;6.10;;
34098;SDS011;20374;49.474;10.944;2024-03-08T13:56:04;6.30;;;5.70;;
34098;SDS011;20374;49.474;10.944;2024-03-08T13:58:36;5.95;;;5.35;;
34098;SDS011;20374;49.474;10.944;2024-03-08T14:01:02;6.53;;;6.03;;
34098;SDS011;20374;49.474;10.944;2024-03-08T14:03:31;6.63;;;6.10;;
34098;SDS011;20374;49.474;10.944;2024-03-08T14:05:57;6.68;;;6.07;;
34098;SDS011;20374;49.474;10.944;2024-03-08T14:08:24;6.13;;;5.63;;
34098;SDS011;20374;49.474;10.944;2024-03-08T14:10:52;6.85;;;6.20;;
34098;SDS011;20374;49.474;10.944;2024-03-08T14:13:19;5.97;;;5.47;;
34098;SDS011;20374;49.474;10.944;2024-03-08T14:15:44;6.38;;;5.97;;
34098;SDS011;20374;49.474;10.944;2024-03-08T14:18:11;7.40;;;6.70;;
34098;SDS011;20374;49.474;10.944;2024-03-08T14:20:38;7.15;;;6.55;;
34098;SDS011;20374;49.474;10.944;2024-03-08T14:23:04;7.27;;;6.57;;
34098;SDS011;20374;49.474;10.944;2024-03-08T14:25:35;6.55;;;5.95;;
34098;SDS011;20374;49.474;10.944;2024-03-08T14:28:01;6.93;;;6.28;;
34098;SDS011;20374;49.474;10.944;2024-03-08T14:30:32;7.07;;;6.47;;
34098;SDS011;20374;49.474;10.944;2024-03-08T14:33:03;6.72;;;6.13;;
34098;SDS011;20374;49.474;10.944;2024-03-08T14:35:34;8.00;;;7.23;;
34098;SDS011;20374;49.474;10.944;2024-03-08T14:38:01;6.80;;;6.13;;
34098;SDS011;20374;49.474;10.944;2024-03-08T14:40:27;7.07;;;6.47;;
34098;SDS011;20374;49.474;10.944;2024-03-08T14:42:53;7.13;;;6.43;;
34098;SDS011;20374;49.474;10.944;2024-03-08T14:45:19;6.97;;;6.13;;
34098;SDS011;20374;49.474;10.944;2024-03-08T14:47:46;6.32;;;5.72;;